Time;durP1;ratioP1;P1;durP2;ratioP2;P2;SDS_P1;SDS_P2;PMS_P1;PMS_P2;Temp;Humidity;BMP_temperature;BMP_pressure;BME280_temperature;BME280_humidity;BME280_pressure;Samples;Min_cycle;Max_cycle;Signal;HPM_P1;HPM_P2
2022/10/02 00:00:51;;;;;;;;;;;;;;;-144.99;100.00;52399.19;5090971;28;20399;-76
2022/10/02 00:03:20;;;;;;;;;;;;;;;-144.99;100.00;52460.31;5090256;28;19930;-77
2022/10/02 00:05:49;;;;;;;;;;;;;;;-144.99;100.00;52423.63;5090777;28;19973;-77
2022/10/02 00:08:18;;;;;;;;;;;;;;;-144.99;100.00;52444.03;5091103;28;19924;-78
2022/10/02 00:10:47;;;;;;;;;;;;;;;-144.99;100.00;52407.31;5091654;28;19973;-78
2022/10/02 00:13:17;;;;;;;;;;;;;;;-144.99;100.00;52460.31;5090957;28;19924;-77
2022/10/02 00:15:44;;;;;;;;;;;;;;;-144.99;100.00;52433.81;5091050;28;20363;-78
2022/10/02 00:18:13;;;;;;;;;;;;;;;-144.99;100.00;52464.41;5091209;28;19931;-78
2022/10/02 00:20:45;;;;;;;;;;;;;;;-144.99;100.00;52427.72;5090319;28;20620;-78
2022/10/02 00:23:13;;;;;;;;;;;;;;;-144.99;100.00;52419.56;5090357;28;20410;-77
2022/10/02 00:25:41;;;;;;;;;;;;;;;-144.99;100.00;52411.41;5091812;28;20007;-76
2022/10/02 00:28:21;;;;;;;;;;;;;;;-144.99;100.00;52435.88;5092017;28;19932;-80
2022/10/02 00:30:58;;;;;;;;;;;;;;;-144.99;100.00;52413.44;5091935;28;19988;-76
2022/10/02 00:33:32;;;;;;;;;;;;;;;-144.99;100.00;52448.09;5091672;28;19931;-80
2022/10/02 00:36:09;;;;;;;;;;;;;;;-144.99;100.00;52431.78;5092256;28;19928;-80
2022/10/02 00:38:43;;;;;;;;;;;;;;;-144.99;100.00;52431.78;5105744;28;19932;-78
2022/10/02 00:41:27;;;;;;;;;;;;;;;-144.99;100.00;52399.19;5099050;28;19924;-79
2022/10/02 00:44:01;;;;;;;;;;;;;;;-144.99;100.00;52415.47;5082423;28;19924;-78
2022/10/02 00:46:35;;;;;;;;;;;;;;;-144.99;100.00;52382.88;5090758;28;19924;-78
2022/10/02 00:49:12;;;;;;;;;;;;;;;-144.99;100.00;52403.25;5090226;28;20444;-77
2022/10/02 00:51:47;;;;;;;;;;;;;;;-144.99;100.00;52403.25;5090302;28;19951;-77
2022/10/02 00:54:24;;;;;;;;;;;;;;;-144.99;100.00;52456.25;5089927;28;19931;-78
2022/10/02 00:56:58;;;;;;;;;;;;;;;-144.99;100.00;52444.03;5090986;28;19924;-83
2022/10/02 00:59:31;;;;;;;;;;;;;;;-144.99;100.00;52431.78;5090623;28;20122;-78
2022/10/02 01:02:01;;;;;;;;;;;;;;;-144.99;100.00;52444.03;5089861;28;19935;-77
2022/10/02 01:04:31;;;;;;;;;;;;;;;-144.99;100.00;52444.03;5089923;28;20303;-79
2022/10/02 01:06:57;;;;;;;;;;;;;;;-144.99;100.00;52435.88;5089249;28;20307;-78
2022/10/02 01:09:24;;;;;;;;;;;;;;;-144.99;100.00;52439.94;5091048;28;19924;-80
2022/10/02 01:11:51;;;;;;;;;;;;;;;-144.99;100.00;52435.88;5089501;28;19935;-78
2022/10/02 01:14:17;;;;;;;;;;;;;;;-144.99;100.00;52391.03;5089920;28;19924;-79
2022/10/02 01:16:44;;;;;;;;;;;;;;;-144.99;100.00;52403.25;5089946;28;19924;-78
2022/10/02 01:19:19;;;;;;;;;;;;;;;-144.99;100.00;52474.59;5089821;28;19924;-79
2022/10/02 01:21:52;;;;;;;;;;;;;;;-144.99;100.00;52423.63;5089522;28;20391;-78
2022/10/02 01:24:22;;;;;;;;;;;;;;;-144.99;100.00;52419.56;5089079;28;19962;-78
2022/10/02 01:26:49;;;;;;;;;;;;;;;-144.99;100.00;52435.88;5089795;28;19924;-77
2022/10/02 01:29:16;;;;;;;;;;;;;;;-144.99;100.00;52452.16;5089730;28;19931;-78
2022/10/02 01:31:42;;;;;;;;;;;;;;;-144.99;100.00;52464.41;5089368;28;19935;-77
2022/10/02 01:34:09;;;;;;;;;;;;;;;-144.99;100.00;52423.63;5088861;28;19924;-79
2022/10/02 01:36:35;;;;;;;;;;;;;;;-144.99;100.00;52456.25;5089302;28;20407;-78
2022/10/02 01:39:02;;;;;;;;;;;;;;;-144.99;100.00;52419.56;5089017;28;19931;-78
2022/10/02 01:41:29;;;;;;;;;;;;;;;-144.99;100.00;52378.78;5081557;28;19924;-75
2022/10/02 01:43:58;;;;;;;;;;;;;;;-144.99;100.00;52388.97;5089536;28;20291;-79
2022/10/02 01:46:30;;;;;;;;;;;;;;;-144.99;100.00;52446.06;5093549;28;19924;-79
2022/10/02 01:49:04;;;;;;;;;;;;;;;-144.99;100.00;52448.09;5093789;28;20114;-77
2022/10/02 01:51:43;;;;;;;;;;;;;;;-144.99;100.00;52452.16;5093279;28;19924;-77
2022/10/02 01:54:15;;;;;;;;;;;;;;;-144.99;100.00;52446.06;5093283;28;19928;-77
2022/10/02 01:56:45;;;;;;;;;;;;;;;-144.99;100.00;52417.53;5093592;28;20426;-76
2022/10/02 01:59:20;;;;;;;;;;;;;;;-144.99;100.00;52429.75;5093889;28;19924;-76
2022/10/02 02:01:51;;;;;;;;;;;;;;;-144.99;100.00;52441.97;5093312;28;20319;-78
2022/10/02 02:04:22;;;;;;;;;;;;;;;-144.99;100.00;52435.88;5093012;28;19924;-77
2022/10/02 02:06:52;;;;;;;;;;;;;;;-144.99;100.00;52421.59;5093745;28;19923;-78
2022/10/02 02:09:21;;;;;;;;;;;;;;;-144.99;100.00;52417.53;5095849;28;19934;-77
2022/10/02 02:11:51;;;;;;;;;;;;;;;-144.99;100.00;52441.97;5079878;28;19999;-78
2022/10/02 02:14:24;;;;;;;;;;;;;;;-144.99;100.00;52439.94;5093200;28;20003;-77
2022/10/02 02:16:54;;;;;;;;;;;;;;;-144.99;100.00;52448.09;5093764;28;19935;-76
2022/10/02 02:19:23;;;;;;;;;;;;;;;-144.99;100.00;52429.75;5088641;28;19932;-77
2022/10/02 02:21:54;;;;;;;;;;;;;;;-144.99;100.00;52478.66;5093022;28;20148;-76
2022/10/02 02:24:22;;;;;;;;;;;;;;;-144.99;100.00;52476.63;5092689;28;19928;-77
2022/10/02 02:26:49;;;;;;;;;;;;;;;-144.99;100.00;52423.63;5093095;28;20410;-78
2022/10/02 02:29:18;;;;;;;;;;;;;;;-144.99;100.00;52480.72;5092755;28;19947;-77
2022/10/02 02:31:49;;;;;;;;;;;;;;;-144.99;100.00;52466.44;5092956;28;19924;-77
2022/10/02 02:34:17;;;;;;;;;;;;;;;-144.99;100.00;52456.25;5092712;28;20268;-79
2022/10/02 02:36:46;;;;;;;;;;;;;;;-144.99;100.00;52435.88;5092886;28;19923;-79
2022/10/02 02:39:14;;;;;;;;;;;;;;;-144.99;100.00;52419.56;5092093;28;20385;-78
2022/10/02 02:41:43;;;;;;;;;;;;;;;-144.99;100.00;52423.63;5092405;28;19924;-78
2022/10/02 02:44:13;;;;;;;;;;;;;;;-144.99;100.00;52415.47;5092906;28;19928;-77
2022/10/02 02:49:25;;;;;;;;;;;;;;;-144.99;100.00;52456.25;5091506;28;19986;-76
2022/10/02 02:51:52;;;;;;;;;;;;;;;-144.99;100.00;52456.25;5093037;28;20023;-77
2022/10/02 02:54:21;;;;;;;;;;;;;;;-144.99;100.00;52431.78;5093154;28;19931;-79
2022/10/02 02:56:48;;;;;;;;;;;;;;;-144.99;100.00;52433.81;5092753;28;19924;-78
2022/10/02 02:59:15;;;;;;;;;;;;;;;-144.99;100.00;52415.47;5092777;28;19924;-77
2022/10/02 03:01:42;;;;;;;;;;;;;;;-144.99;100.00;52439.94;5094821;28;19935;-81
2022/10/02 03:04:10;;;;;;;;;;;;;;;-144.99;100.00;52419.56;5112296;28;19918;-82
2022/10/02 03:06:39;;;;;;;;;;;;;;;-144.99;100.00;52419.56;5106048;28;19924;-81
2022/10/02 03:09:07;;;;;;;;;;;;;;;-144.99;100.00;52391.03;5098662;28;20034;-80
2022/10/02 03:11:43;;;;;;;;;;;;;;;-144.99;100.00;52415.47;5096078;28;19930;-80
2022/10/02 03:14:20;;;;;;;;;;;;;;;-144.99;100.00;52448.09;5095734;28;19928;-80
2022/10/02 03:16:52;;;;;;;;;;;;;;;-144.99;100.00;52476.63;5095788;28;19935;-80
2022/10/02 03:19:25;;;;;;;;;;;;;;;-144.99;100.00;52468.47;5095900;28;19924;-80
2022/10/02 03:21:59;;;;;;;;;;;;;;;-144.99;100.00;52446.06;5095470;28;19928;-80
2022/10/02 03:24:29;;;;;;;;;;;;;;;-144.99;100.00;52407.31;5094867;28;19935;-80
2022/10/02 03:27:00;;;;;;;;;;;;;;;-144.99;100.00;52439.94;5095267;28;20371;-80
2022/10/02 03:29:31;;;;;;;;;;;;;;;-144.99;100.00;52464.41;5095483;28;19954;-80
2022/10/02 03:31:59;;;;;;;;;;;;;;;-144.99;100.00;52472.56;5094705;28;20426;-80
2022/10/02 03:34:26;;;;;;;;;;;;;;;-144.99;100.00;52441.97;5094803;28;20415;-81
2022/10/02 03:36:52;;;;;;;;;;;;;;;-144.99;100.00;52472.56;5095935;28;19934;-81
2022/10/02 03:39:20;;;;;;;;;;;;;;;-144.99;100.00;52476.63;5094012;28;19933;-81
2022/10/02 03:41:46;;;;;;;;;;;;;;;-144.99;100.00;52444.03;5093862;28;19924;-80
2022/10/02 03:44:13;;;;;;;;;;;;;;;-144.99;100.00;52444.03;5095282;28;19924;-83
2022/10/02 03:46:39;;;;;;;;;;;;;;;-144.99;100.00;52415.47;5094575;28;19930;-80
2022/10/02 03:49:06;;;;;;;;;;;;;;;-144.99;100.00;52464.41;5094739;28;19924;-80
2022/10/02 03:51:32;;;;;;;;;;;;;;;-144.99;100.00;52476.63;5094580;28;19924;-80
2022/10/02 03:53:58;;;;;;;;;;;;;;;-144.99;100.00;52484.78;5094928;28;20055;-80
2022/10/02 03:56:30;;;;;;;;;;;;;;;-144.99;100.00;52472.56;5095561;28;19923;-80
2022/10/02 03:58:59;;;;;;;;;;;;;;;-144.99;100.00;52452.16;5095448;28;20068;-80
2022/10/02 04:01:27;;;;;;;;;;;;;;;-144.99;100.00;52460.31;5094412;28;20414;-80
2022/10/02 04:03:56;;;;;;;;;;;;;;;-144.99;100.00;52435.88;5094554;28;19931;-80
2022/10/02 04:06:26;;;;;;;;;;;;;;;-144.99;100.00;52427.72;5094525;28;19931;-82
2022/10/02 04:08:56;;;;;;;;;;;;;;;-144.99;100.00;52431.78;5097416;28;19930;-80
2022/10/02 04:11:24;;;;;;;;;;;;;;;-144.99;100.00;52468.47;5097481;28;19924;-77
2022/10/02 04:13:55;;;;;;;;;;;;;;;-144.99;100.00;52468.47;5094217;28;20014;-80
2022/10/02 04:16:26;;;;;;;;;;;;;;;-144.99;100.00;52464.41;5094385;28;19928;-78
2022/10/02 04:18:55;;;;;;;;;;;;;;;-144.99;100.00;52456.25;5094083;28;19924;-80
2022/10/02 04:21:27;;;;;;;;;;;;;;;-144.99;100.00;52439.94;5093256;28;19928;-79
2022/10/02 04:23:56;;;;;;;;;;;;;;;-144.99;100.00;52466.44;5093079;28;20497;-80
2022/10/02 04:26:25;;;;;;;;;;;;;;;-144.99;100.00;52452.16;5093538;28;19931;-80
2022/10/02 04:28:56;;;;;;;;;;;;;;;-144.99;100.00;52456.25;5094033;28;19931;-80
2022/10/02 04:31:23;;;;;;;;;;;;;;;-144.99;100.00;52472.56;5092991;28;19946;-80
2022/10/02 04:33:49;;;;;;;;;;;;;;;-144.99;100.00;52435.88;5093124;28;20011;-80
2022/10/02 04:36:23;;;;;;;;;;;;;;;-144.99;100.00;52462.34;5093310;28;19926;-79
2022/10/02 04:38:58;;;;;;;;;;;;;;;-144.99;100.00;52476.63;5093025;28;19924;-80
2022/10/02 04:41:35;;;;;;;;;;;;;;;-144.99;100.00;52407.31;5093553;28;20022;-80
2022/10/02 04:44:10;;;;;;;;;;;;;;;-144.99;100.00;52492.94;5093530;28;19925;-80
2022/10/02 04:46:49;;;;;;;;;;;;;;;-144.99;100.00;52482.75;5093834;28;19924;-81
2022/10/02 04:49:39;;;;;;;;;;;;;;;-144.99;100.00;52427.72;5092832;28;20298;-80
2022/10/02 04:52:14;;;;;;;;;;;;;;;-144.99;100.00;52454.22;5081748;28;19924;-80
2022/10/02 04:54:54;;;;;;;;;;;;;;;-144.99;100.00;52460.31;5093342;28;20276;-80
2022/10/02 04:57:35;;;;;;;;;;;;;;;-144.99;100.00;52399.19;5093011;28;20279;-81
2022/10/02 05:00:06;;;;;;;;;;;;;;;-144.99;100.00;52439.94;5093501;28;19924;-82
2022/10/02 05:02:36;;;;;;;;;;;;;;;-144.99;100.00;52419.56;5092876;28;19924;-79
2022/10/02 05:05:09;;;;;;;;;;;;;;;-144.99;100.00;52482.75;5092978;28;19924;-80
2022/10/02 05:07:56;;;;;;;;;;;;;;;-144.99;100.00;52446.06;5084607;28;19944;-81
2022/10/02 05:10:30;;;;;;;;;;;;;;;-144.99;100.00;52456.25;5081158;28;19924;-81
2022/10/02 05:13:04;;;;;;;;;;;;;;;-144.99;100.00;52486.81;5091883;28;19930;-80
2022/10/02 05:15:47;;;;;;;;;;;;;;;-144.99;100.00;52450.13;5091464;28;19924;-80
2022/10/02 05:18:29;;;;;;;;;;;;;;;-144.99;100.00;52415.47;5094748;28;19927;-82
2022/10/02 05:21:05;;;;;;;;;;;;;;;-144.99;100.00;52472.56;5099661;28;20304;-81
2022/10/02 05:23:39;;;;;;;;;;;;;;;-144.99;100.00;52452.16;5102820;28;20031;-82
2022/10/02 05:26:13;;;;;;;;;;;;;;;-144.99;100.00;52439.94;5105144;28;19913;-82
2022/10/02 05:28:52;;;;;;;;;;;;;;;-144.99;100.00;52431.78;5121092;27;19967;-83
2022/10/02 05:31:25;;;;;;;;;;;;;;;-144.99;100.00;52439.94;5089690;28;19924;-80
2022/10/02 05:34:00;;;;;;;;;;;;;;;-144.99;100.00;52472.56;5100574;28;19934;-80
2022/10/02 05:36:37;;;;;;;;;;;;;;;-144.99;100.00;52456.25;5099144;28;20223;-80
2022/10/02 05:39:06;;;;;;;;;;;;;;;-144.99;100.00;52446.06;5100232;28;19924;-80
2022/10/02 05:41:37;;;;;;;;;;;;;;;-144.99;100.00;52492.94;5094289;28;19928;-81
2022/10/02 05:46:36;;;;;;;;;;;;;;;-144.99;100.00;52476.63;5068027;28;19924;-75
2022/10/02 05:49:05;;;;;;;;;;;;;;;-144.99;100.00;52439.94;5075422;28;19925;-76
2022/10/02 05:51:37;;;;;;;;;;;;;;;-144.99;100.00;52431.78;5079591;28;19931;-76
2022/10/02 05:54:05;;;;;;;;;;;;;;;-144.99;100.00;52466.44;5097256;28;19930;-75
2022/10/02 05:56:33;;;;;;;;;;;;;;;-144.99;100.00;52444.03;5081052;28;19939;-76
2022/10/02 05:59:04;;;;;;;;;;;;;;;-144.99;100.00;52470.50;5077251;28;19931;-76
2022/10/02 06:01:33;;;;;;;;;;;;;;;-144.99;100.00;52427.72;5076987;28;19932;-75
2022/10/02 06:04:06;;;;;;;;;;;;;;;-144.99;100.00;52476.63;5077224;28;19924;-75
2022/10/02 06:06:33;;;;;;;;;;;;;;;-144.99;100.00;52452.16;5077034;28;19931;-76
2022/10/02 06:09:01;;;;;;;;;;;;;;;-144.99;100.00;52450.13;5077002;28;19931;-76
2022/10/02 06:11:30;;;;;;;;;;;;;;;-144.99;100.00;52415.47;5076705;28;19924;-74
2022/10/02 06:13:58;;;;;;;;;;;;;;;-144.99;100.00;52460.31;5077489;28;19925;-76
2022/10/02 06:16:28;;;;;;;;;;;;;;;-144.99;100.00;52444.03;5090689;28;19924;-76
2022/10/02 06:18:57;;;;;;;;;;;;;;;-144.99;100.00;52419.56;5073081;28;20001;-76
2022/10/02 06:21:28;;;;;;;;;;;;;;;-144.99;100.00;52433.81;5076813;28;19932;-75
2022/10/02 06:23:57;;;;;;;;;;;;;;;-144.99;100.00;52460.31;5090879;28;19946;-76
2022/10/02 06:26:26;;;;;;;;;;;;;;;-144.99;100.00;52431.78;5097475;28;20311;-75
2022/10/02 06:28:54;;;;;;;;;;;;;;;-144.99;100.00;52448.09;5099172;28;19931;-75
2022/10/02 06:31:26;;;;;;;;;;;;;;;-144.99;100.00;52462.34;5090181;28;19929;-75
2022/10/02 06:33:53;;;;;;;;;;;;;;;-144.99;100.00;52423.63;5076981;28;19928;-76
2022/10/02 06:36:29;;;;;;;;;;;;;;;-144.99;100.00;52444.03;5077335;28;19924;-75
2022/10/02 06:39:06;;;;;;;;;;;;;;;-144.99;100.00;52435.88;5095903;28;19924;-76
2022/10/02 06:41:35;;;;;;;;;;;;;;;-144.99;100.00;52497.00;5087261;28;19924;-75
2022/10/02 06:44:11;;;;;;;;;;;;;;;-144.99;100.00;52427.72;5093374;28;19980;-76
2022/10/02 06:46:44;;;;;;;;;;;;;;;-144.99;100.00;52448.09;5092653;28;19925;-76
2022/10/02 06:49:15;;;;;;;;;;;;;;;-144.99;100.00;52476.63;5091335;28;19924;-76
2022/10/02 06:51:48;;;;;;;;;;;;;;;-144.99;100.00;52448.09;5096883;28;19929;-76
2022/10/02 06:54:34;;;;;;;;;;;;;;;-144.99;100.00;52435.88;5090102;28;19924;-75
2022/10/02 06:57:14;;;;;;;;;;;;;;;-144.99;100.00;52407.31;5094401;28;19924;-76
2022/10/02 06:59:53;;;;;;;;;;;;;;;-144.99;100.00;52423.63;5079104;28;19924;-76
2022/10/02 07:02:27;;;;;;;;;;;;;;;-144.99;100.00;52382.88;5073361;28;19978;-77
2022/10/02 07:05:04;;;;;;;;;;;;;;;-144.99;100.00;52431.78;5073338;28;19924;-76
2022/10/02 07:07:40;;;;;;;;;;;;;;;-144.99;100.00;52460.31;5072603;28;19925;-76
2022/10/02 07:10:15;;;;;;;;;;;;;;;-144.99;100.00;52435.88;5074372;28;19928;-76
2022/10/02 07:12:59;;;;;;;;;;;;;;;-144.99;100.00;52439.94;5082685;28;20380;-76
2022/10/02 07:15:43;;;;;;;;;;;;;;;-144.99;100.00;52403.25;5114245;28;19988;-77
2022/10/02 07:18:18;;;;;;;;;;;;;;;-144.99;100.00;52435.88;5107908;28;19928;-77
2022/10/02 07:20:48;;;;;;;;;;;;;;;-144.99;100.00;52403.25;5094020;28;19950;-77
2022/10/02 07:23:25;;;;;;;;;;;;;;;-144.99;100.00;52456.25;5093417;28;19960;-76
2022/10/02 07:25:59;;;;;;;;;;;;;;;-144.99;100.00;52468.47;5093847;28;19924;-77
2022/10/02 07:28:32;;;;;;;;;;;;;;;-144.99;100.00;52452.16;5093070;28;19924;-77
2022/10/02 07:31:04;;;;;;;;;;;;;;;-144.99;100.00;52462.34;5092725;28;19912;-77
2022/10/02 07:33:38;;;;;;;;;;;;;;;-144.99;100.00;52456.25;5091639;28;19959;-77
2022/10/02 07:36:07;;;;;;;;;;;;;;;-144.99;100.00;52393.06;5084043;28;20019;-76
2022/10/02 07:38:44;;;;;;;;;;;;;;;-144.99;100.00;52399.19;5092529;28;19924;-76
2022/10/02 07:41:18;;;;;;;;;;;;;;;-144.99;100.00;52415.47;5093694;28;19924;-76
2022/10/02 07:43:48;;;;;;;;;;;;;;;-144.99;100.00;52439.94;5108668;28;19924;-76
2022/10/02 07:46:17;;;;;;;;;;;;;;;-144.99;100.00;52411.41;5099208;28;19912;-76
2022/10/02 07:48:49;;;;;;;;;;;;;;;-144.99;100.00;52460.31;5085197;28;19932;-76
2022/10/02 07:54:17;;;;;;;;;;;;;;;-144.99;100.00;52415.47;5075701;28;20019;-76
2022/10/02 07:56:45;;;;;;;;;;;;;;;-144.99;100.00;52382.88;5080000;28;19925;-76
2022/10/02 07:59:15;;;;;;;;;;;;;;;-144.99;100.00;52384.91;5084702;28;19924;-76
2022/10/02 08:01:43;;;;;;;;;;;;;;;-144.99;100.00;52354.34;5093368;28;19924;-75
2022/10/02 08:04:11;;;;;;;;;;;;;;;-144.99;100.00;52370.63;5093838;28;19928;-74
2022/10/02 08:06:38;;;;;;;;;;;;;;;-144.99;100.00;52391.03;5095989;28;19930;-76
2022/10/02 08:09:10;;;;;;;;;;;;;;;-144.99;100.00;52423.63;5067816;28;19931;-77
2022/10/02 08:11:39;;;;;;;;;;;;;;;-144.99;100.00;52395.09;5072211;28;19935;-77
2022/10/02 08:14:08;;;;;;;;;;;;;;;-144.99;100.00;52448.09;5073708;28;19975;-77
2022/10/02 08:16:38;;;;;;;;;;;;;;;-144.99;100.00;52431.78;5086946;28;19928;-76
2022/10/02 08:19:07;;;;;;;;;;;;;;;-144.99;100.00;52429.75;5073032;28;20306;-77
2022/10/02 08:21:38;;;;;;;;;;;;;;;-144.99;100.00;52370.63;5072124;28;19925;-75
2022/10/02 08:24:07;;;;;;;;;;;;;;;-144.99;100.00;52411.41;5070884;28;19931;-77
2022/10/02 08:26:35;;;;;;;;;;;;;;;-144.99;100.00;52429.75;5072506;28;20019;-77
2022/10/02 08:29:05;;;;;;;;;;;;;;;-144.99;100.00;52427.72;5076844;28;19925;-76
2022/10/02 08:31:33;;;;;;;;;;;;;;;-144.99;100.00;52403.25;5080486;28;19947;-76
2022/10/02 08:34:00;;;;;;;;;;;;;;;-144.99;100.00;52441.97;5084074;28;19930;-77
2022/10/02 08:36:45;;;;;;;;;;;;;;;-144.99;100.00;52415.47;5103011;28;19934;-78
2022/10/02 08:39:17;;;;;;;;;;;;;;;-144.99;100.00;52391.03;5075618;28;19924;-77
2022/10/02 08:42:10;;;;;;;;;;;;;;;-144.99;100.00;52415.47;5080098;28;20429;-77
2022/10/02 08:44:56;;;;;;;;;;;;;;;-144.99;100.00;52480.72;5072441;28;20426;-77
2022/10/02 08:47:40;;;;;;;;;;;;;;;-144.99;100.00;52388.97;5071871;28;20024;-76
2022/10/02 08:50:29;;;;;;;;;;;;;;;-144.99;100.00;52395.09;5071136;28;19936;-77
2022/10/02 08:53:14;;;;;;;;;;;;;;;-144.99;100.00;52403.25;5070743;28;19974;-77
2022/10/02 08:55:49;;;;;;;;;;;;;;;-144.99;100.00;52403.25;5071961;28;19924;-76
2022/10/02 08:58:33;;;;;;;;;;;;;;;-144.99;100.00;52399.19;5071475;28;19924;-76
2022/10/02 09:01:07;;;;;;;;;;;;;;;-144.99;100.00;52374.72;5099558;28;19924;-77
2022/10/02 09:03:49;;;;;;;;;;;;;;;-144.99;100.00;52342.09;5110394;28;19924;-77
2022/10/02 09:06:44;;;;;;;;;;;;;;;-144.99;100.00;52386.94;5108223;28;19924;-76
2022/10/02 09:09:31;;;;;;;;;;;;;;;-144.99;100.00;52362.50;5088882;28;19924;-76
2022/10/02 09:12:11;;;;;;;;;;;;;;;-144.99;100.00;52338.03;5092598;28;19945;-77
2022/10/02 09:14:49;;;;;;;;;;;;;;;-144.99;100.00;52309.50;5094221;28;19979;-77
2022/10/02 09:17:16;;;;;;;;;;;;;;;-144.99;100.00;52358.41;5093882;28;19918;-76
2022/10/02 09:19:49;;;;;;;;;;;;;;;-144.99;100.00;52358.41;5092452;28;19928;-77
2022/10/02 09:22:32;;;;;;;;;;;;;;;-144.99;100.00;52364.53;5092559;28;19956;-76
2022/10/02 09:25:27;;;;;;;;;;;;;;;-144.99;100.00;52370.63;5102513;28;19924;-77
2022/10/02 09:28:12;;;;;;;;;;;;;;;-144.99;100.00;52399.19;5086681;28;19924;-77
2022/10/02 09:30:53;;;;;;;;;;;;;;;-144.99;100.00;52378.78;5109768;28;19935;-76
2022/10/02 09:33:45;;;;;;;;;;;;;;;-144.99;100.00;52378.78;5062324;28;19935;-75
2022/10/02 09:36:27;;;;;;;;;;;;;;;-144.99;100.00;52358.41;5063915;28;19924;-76
2022/10/02 09:39:15;;;;;;;;;;;;;;;-144.99;94.62;52327.84;5072787;28;19970;-76
2022/10/02 09:42:04;;;;;;;;;;;;;;;-144.99;88.89;52325.81;5065711;28;19932;-75
2022/10/02 09:44:45;;;;;;;;;;;;;;;-144.99;84.11;52301.34;5071393;28;20709;-76
2022/10/02 09:47:25;;;;;;;;;;;;;;;-144.99;80.18;52297.25;5070958;28;19924;-76
2022/10/02 09:50:00;;;;;;;;;;;;;;;-144.99;78.42;52280.97;5070663;28;19935;-76
2022/10/02 09:52:56;;;;;;;;;;;;;;;-144.99;73.31;52248.34;5070205;28;19985;-76
2022/10/02 09:55:42;;;;;;;;;;;;;;;-144.99;72.04;52268.72;5071071;28;19928;-76
2022/10/02 09:58:32;;;;;;;;;;;;;;;-144.99;67.55;52236.13;5087440;28;19938;-77
2022/10/02 10:01:19;;;;;;;;;;;;;;;-144.99;62.40;52244.28;5091297;28;19928;-76
2022/10/02 10:04:07;;;;;;;;;;;;;;;-144.99;63.42;52225.94;5087150;28;19924;-77
2022/10/02 10:06:45;;;;;;;;;;;;;;;-144.99;62.12;52232.03;5092954;28;19932;-77
2022/10/02 10:09:37;;;;;;;;;;;;;;;-144.99;60.96;52232.03;5077350;28;19930;-76
2022/10/02 10:12:18;;;;;;;;;;;;;;;-144.99;61.52;52240.19;5074725;28;19928;-76
2022/10/02 10:14:55;;;;;;;;;;;;;;;-144.99;58.79;52195.34;5075541;28;20319;-76
2022/10/02 10:17:55;;;;;;;;;;;;;;;-144.99;56.67;52170.91;5067723;28;20452;-77
2022/10/02 10:20:40;;;;;;;;;;;;;;;-144.99;53.69;52199.44;5072110;28;19932;-75
2022/10/02 10:23:19;;;;;;;;;;;;;;;-144.99;52.12;52236.13;4366302;28;10000801;-76
2022/10/02 10:26:04;;;;;;;;;;;;;;;-144.99;54.68;52211.66;5066713;28;19929;-76
2022/10/02 10:29:03;;;;;;;;;;;;;;;-144.99;54.77;52142.38;5058742;28;19944;-76
2022/10/02 10:32:04;;;;;;;;;;;;;;;-144.99;52.24;52107.72;5064246;28;19928;-77
2022/10/02 10:34:50;;;;;;;;;;;;;;;-144.99;51.76;52134.22;5065640;28;19932;-75
2022/10/02 10:40:19;;;;;;;;;;;;;;;-144.99;49.95;52093.44;5067941;28;20425;-76
2022/10/02 10:43:04;;;;;;;;;;;;;;;-144.99;51.58;52276.88;5069699;28;19932;-77
2022/10/02 10:45:42;;;;;;;;;;;;;;;-144.99;55.78;52289.13;5055876;28;19981;-77
2022/10/02 10:48:18;;;;;;;;;;;;;;;-144.99;56.58;52162.75;5077234;28;19933;-80
2022/10/02 10:50:50;;;;;;;;;;;;;;;-144.99;54.74;52124.03;5075979;28;19929;-77
2022/10/02 10:53:21;;;;;;;;;;;;;;;-144.99;51.53;52060.84;5086644;28;19931;-79
2022/10/02 10:56:10;;;;;;;;;;;;;;;-144.99;49.22;52252.44;5081682;28;19974;-77
2022/10/02 10:58:51;;;;;;;;;;;;;;;-144.99;50.33;52301.34;5079634;28;19934;-76
2022/10/02 11:01:18;;;;;;;;;;;;;;;-144.99;52.55;52331.91;5077598;28;20104;-76
2022/10/02 11:03:57;;;;;;;;;;;;;;;-144.99;54.30;52283.00;5091232;28;19946;-76
2022/10/02 11:06:36;;;;;;;;;;;;;;;-144.99;53.13;52272.81;5073065;28;19928;-76
2022/10/02 11:09:21;;;;;;;;;;;;;;;-144.99;56.87;52317.66;5074208;28;19924;-75
2022/10/02 11:11:56;;;;;;;;;;;;;;;-144.99;59.69;52278.91;5065677;28;19931;-76
2022/10/02 11:14:30;;;;;;;;;;;;;;;-144.99;56.03;52130.13;5072705;28;19935;-78
2022/10/02 11:17:09;;;;;;;;;;;;;;;-144.99;53.52;52109.75;5086632;28;20035;-78
2022/10/02 11:19:46;;;;;;;;;;;;;;;-144.99;52.53;52064.91;5081814;28;19963;-77
2022/10/02 11:22:27;;;;;;;;;;;;;;;-144.99;51.61;52109.75;5083802;28;20287;-78
2022/10/02 11:25:11;;;;;;;;;;;;;;;-144.99;50.23;52203.50;5078973;28;19931;-77
2022/10/02 11:27:57;;;;;;;;;;;;;;;-144.99;49.34;52225.94;5100431;28;20281;-77
2022/10/02 11:30:24;;;;;;;;;;;;;;;-144.99;53.24;52329.88;5084201;28;19928;-78
2022/10/02 11:33:10;;;;;;;;;;;;;;;-144.99;58.67;52350.25;5083829;28;19969;-77
2022/10/02 11:35:47;;;;;;;;;;;;;;;-144.99;66.79;52342.09;5070260;28;19959;-77
2022/10/02 11:38:34;;;;;;;;;;;;;;;-144.99;70.30;52338.03;5071619;28;20280;-75
2022/10/02 11:41:14;;;;;;;;;;;;;;;-144.99;68.27;52338.03;5057064;28;19929;-76
2022/10/02 11:44:04;;;;;;;;;;;;;;;-144.99;62.74;52195.34;5060753;28;19947;-77
2022/10/02 11:46:36;;;;;;;;;;;;;;;-144.99;59.75;52252.44;5063268;28;20335;-76
2022/10/02 11:49:19;;;;;;;;;;;;;;;-144.99;57.23;52268.72;5070617;28;20012;-77
2022/10/02 11:52:00;;;;;;;;;;;;;;;-144.99;60.11;52352.28;5070998;28;20298;-76
2022/10/02 11:54:36;;;;;;;;;;;;;;;-144.99;60.68;52187.19;5066741;28;19928;-76
2022/10/02 11:57:18;;;;;;;;;;;;;;;-144.99;57.80;52303.38;5080398;28;19932;-77
2022/10/02 11:59:53;;;;;;;;;;;;;;;-144.99;57.11;52179.06;5086704;28;19928;-77
2022/10/02 12:02:22;;;;;;;;;;;;;;;-144.99;54.74;52168.84;5083060;28;19924;-76
2022/10/02 12:04:57;;;;;;;;;;;;;;;-144.99;51.96;52213.69;5084018;28;19928;-75
2022/10/02 12:07:31;;;;;;;;;;;;;;;-144.99;50.96;52268.72;5080412;28;20404;-75
2022/10/02 12:10:03;;;;;;;;;;;;;;;-144.99;50.24;52134.22;5070738;28;20395;-75
2022/10/02 12:12:36;;;;;;;;;;;;;;;-144.99;47.29;52069.00;5072636;28;19939;-77
2022/10/02 12:15:09;;;;;;;;;;;;;;;-144.99;47.19;52081.22;5067896;28;20197;-78
2022/10/02 12:17:52;;;;;;;;;;;;;;;-144.99;44.73;52197.41;5066106;28;20314;-76
2022/10/02 12:28:53;;;;;;;;;;;;;;;-144.99;52.46;52370.63;5065785;28;20335;-76
2022/10/02 12:31:25;;;;;;;;;;;;;;;-144.99;53.54;52321.72;5070440;28;19929;-77
2022/10/02 12:34:00;;;;;;;;;;;;;;;-144.99;53.44;52340.06;5069775;28;20387;-76
2022/10/02 12:36:38;;;;;;;;;;;;;;;-144.99;54.38;52393.06;5071373;28;19924;-76
2022/10/02 12:39:13;;;;;;;;;;;;;;;-144.99;56.09;52399.19;5081040;28;19928;-76
2022/10/02 12:41:51;;;;;;;;;;;;;;;-144.99;56.81;52358.41;5064520;28;19928;-77
2022/10/02 12:44:33;;;;;;;;;;;;;;;-144.99;56.38;52391.03;5059963;28;20011;-76
2022/10/02 12:47:17;;;;;;;;;;;;;;;-144.99;55.83;52372.69;5069577;28;20086;-77
2022/10/02 12:49:50;;;;;;;;;;;;;;;-144.99;55.95;52407.31;5078975;28;20027;-77
2022/10/02 12:52:50;;;;;;;;;;;;;;;-144.99;56.42;52419.56;5080369;28;20326;-76
2022/10/02 12:55:35;;;;;;;;;;;;;;;-144.99;56.76;52415.47;5091734;28;19932;-76
2022/10/02 12:58:09;;;;;;;;;;;;;;;-144.99;54.95;52207.59;5092879;28;19934;-77
2022/10/02 13:00:48;;;;;;;;;;;;;;;-144.99;52.53;52350.25;5080196;28;19958;-76
2022/10/02 13:03:50;;;;;;;;;;;;;;;-144.99;49.27;52317.66;5071496;28;19931;-77
2022/10/02 13:06:30;;;;;;;;;;;;;;;-144.99;48.13;52319.69;5075911;28;20173;-76
2022/10/02 13:09:19;;;;;;;;;;;;;;;-144.99;47.71;52331.91;5075634;28;19928;-76
2022/10/02 13:11:51;;;;;;;;;;;;;;;-144.99;46.04;52113.84;5070271;28;19946;-78
2022/10/02 13:14:27;;;;;;;;;;;;;;;-144.99;43.47;52089.38;5096543;28;19939;-77
2022/10/02 13:17:05;;;;;;;;;;;;;;;-144.99;41.67;52073.06;5094586;28;20338;-75